createdAt,value
2019-03-27T00:00:08.594Z,0.00
2019-03-27T00:01:08.607Z,0.00
2019-03-27T00:02:08.600Z,0.00
2019-03-27T00:03:08.089Z,0.00
2019-03-27T00:04:08.105Z,0.00
2019-03-27T00:05:08.096Z,0.00
2019-03-27T00:06:08.092Z,0.00
2019-03-27T00:07:08.105Z,0.00
2019-03-27T00:08:08.091Z,0.00
2019-03-27T00:09:08.091Z,0.00
2019-03-27T00:10:08.093Z,0.00
2019-03-27T00:11:08.093Z,0.00
2019-03-27T00:12:08.107Z,0.00
2019-03-27T00:13:08.092Z,0.00
2019-03-27T00:14:08.112Z,0.00
2019-03-27T00:15:13.109Z,0.00
2019-03-27T00:16:09.080Z,0.00
2019-03-27T00:17:08.099Z,0.00
2019-03-27T00:18:08.102Z,0.00
2019-03-27T00:19:08.102Z,0.00
2019-03-27T00:20:08.080Z,0.00
2019-03-27T00:21:08.089Z,0.00
2019-03-27T00:22:08.094Z,0.00
2019-03-27T00:23:08.095Z,0.00
2019-03-27T00:24:08.097Z,0.00
2019-03-27T00:25:08.107Z,0.00
2019-03-27T00:26:08.090Z,0.00
2019-03-27T00:27:08.089Z,0.00
2019-03-27T00:28:08.088Z,0.00
2019-03-27T00:29:08.089Z,0.00
2019-03-27T00:30:08.099Z,0.00
2019-03-27T00:31:08.092Z,0.00
2019-03-27T00:32:08.093Z,0.00
2019-03-27T00:33:06.293Z,0.00
2019-03-27T00:34:08.088Z,0.00
2019-03-27T00:35:08.077Z,0.00
2019-03-27T00:36:08.104Z,0.00
2019-03-27T00:37:08.090Z,0.00
2019-03-27T00:38:08.096Z,0.00
2019-03-27T00:39:06.225Z,0.00
2019-03-27T00:40:08.094Z,0.00
2019-03-27T00:41:08.086Z,0.00
2019-03-27T00:42:08.093Z,0.00
2019-03-27T00:43:08.097Z,0.00
2019-03-27T00:44:08.089Z,0.00
2019-03-27T00:45:08.088Z,0.00
2019-03-27T00:46:08.091Z,0.00
2019-03-27T00:47:08.086Z,0.00
2019-03-27T00:48:08.094Z,0.00
2019-03-27T00:49:08.087Z,0.00
2019-03-27T00:50:07.599Z,0.00
2019-03-27T00:51:07.591Z,0.00
2019-03-27T00:52:07.578Z,0.00
2019-03-27T00:53:07.586Z,0.00
2019-03-27T00:54:07.588Z,0.00
2019-03-27T00:55:07.608Z,0.00
2019-03-27T00:56:07.598Z,0.00
2019-03-27T00:57:07.588Z,0.00
2019-03-27T00:58:07.594Z,0.00
2019-03-27T00:59:07.574Z,0.00
2019-03-27T01:00:07.587Z,0.00
2019-03-27T01:01:07.585Z,0.00
2019-03-27T01:02:07.597Z,0.00
2019-03-27T01:03:07.588Z,0.00
2019-03-27T01:04:07.596Z,0.00
2019-03-27T01:05:07.587Z,0.00
2019-03-27T01:06:07.585Z,0.00
2019-03-27T01:07:07.574Z,0.00
2019-03-27T01:08:07.588Z,0.00
2019-03-27T01:09:07.594Z,0.00
2019-03-27T01:10:07.584Z,0.00
2019-03-27T01:11:07.597Z,0.00
2019-03-27T01:12:07.573Z,0.00
2019-03-27T01:13:07.583Z,0.00
2019-03-27T01:14:07.586Z,0.00
2019-03-27T01:15:07.606Z,0.00
2019-03-27T01:16:07.590Z,0.00
2019-03-27T01:17:07.584Z,0.00
2019-03-27T01:18:07.585Z,0.00
2019-03-27T01:19:07.584Z,0.00
2019-03-27T01:20:07.595Z,0.00
2019-03-27T01:21:07.585Z,0.00
2019-03-27T01:22:07.586Z,0.00
2019-03-27T01:23:07.573Z,0.00
2019-03-27T01:24:07.584Z,0.00
2019-03-27T01:25:07.584Z,0.00
2019-03-27T01:26:07.592Z,0.00
2019-03-27T01:27:07.571Z,0.00
2019-03-27T01:28:07.575Z,0.00
2019-03-27T01:29:07.590Z,0.00
2019-03-27T01:30:07.583Z,0.00
2019-03-27T01:31:07.594Z,0.00
2019-03-27T01:32:07.593Z,0.00
2019-03-27T01:33:06.585Z,0.00
2019-03-27T01:34:07.580Z,0.00
2019-03-27T01:35:07.570Z,0.00
2019-03-27T01:36:07.569Z,0.00
2019-03-27T01:37:07.589Z,0.00
2019-03-27T01:38:06.581Z,0.00
2019-03-27T01:39:07.082Z,0.00
2019-03-27T01:40:08.082Z,0.00
2019-03-27T01:41:07.150Z,0.00
2019-03-27T01:42:07.081Z,0.00
2019-03-27T01:43:07.094Z,0.00
2019-03-27T01:44:07.090Z,0.00
2019-03-27T01:45:07.081Z,0.00
2019-03-27T01:46:07.080Z,0.00
2019-03-27T01:47:07.085Z,0.00
2019-03-27T01:48:07.084Z,0.00
2019-03-27T01:49:07.079Z,0.00
2019-03-27T01:50:07.084Z,0.00
2019-03-27T01:51:05.453Z,0.00
2019-03-27T01:52:08.183Z,0.00
2019-03-27T01:53:07.088Z,0.00
2019-03-27T01:54:07.082Z,0.00
2019-03-27T01:55:07.069Z,0.00
2019-03-27T01:56:07.082Z,0.00
2019-03-27T01:57:07.080Z,0.00
2019-03-27T01:58:07.078Z,0.00
2019-03-27T01:59:07.085Z,0.00
2019-03-27T02:00:07.077Z,0.00
2019-03-27T02:01:07.077Z,0.00
2019-03-27T02:02:07.079Z,0.00
2019-03-27T02:03:07.091Z,0.00
2019-03-27T02:04:07.090Z,0.00
2019-03-27T02:05:07.079Z,0.00
2019-03-27T02:06:07.079Z,0.00
2019-03-27T02:07:07.076Z,0.00
2019-03-27T02:08:07.065Z,0.00
2019-03-27T02:09:07.076Z,0.00
2019-03-27T02:10:07.087Z,0.00
2019-03-27T02:11:07.077Z,0.00
2019-03-27T02:12:07.066Z,0.00
2019-03-27T02:13:07.076Z,0.00
2019-03-27T02:14:07.081Z,0.00
2019-03-27T02:15:07.087Z,0.00
2019-03-27T02:16:21.076Z,0.00
2019-03-27T02:17:07.077Z,0.00
2019-03-27T02:18:07.064Z,0.00
2019-03-27T02:19:07.077Z,0.00
2019-03-27T02:20:07.088Z,0.00
2019-03-27T02:21:07.075Z,0.00
2019-03-27T02:22:07.076Z,0.00
2019-03-27T02:23:07.087Z,0.00
2019-03-27T02:24:07.077Z,0.00
2019-03-27T02:25:07.086Z,0.00
2019-03-27T02:26:06.582Z,0.00
2019-03-27T02:27:06.589Z,0.00
2019-03-27T02:28:06.583Z,0.00
2019-03-27T02:29:06.575Z,0.00
2019-03-27T02:30:06.574Z,0.00
2019-03-27T02:31:06.588Z,0.00
2019-03-27T02:32:06.588Z,0.00
2019-03-27T02:33:06.580Z,0.00
2019-03-27T02:34:06.574Z,0.00
2019-03-27T02:35:06.574Z,0.00
2019-03-27T02:36:06.574Z,0.00
2019-03-27T02:37:06.586Z,0.00
2019-03-27T02:38:06.569Z,0.00
2019-03-27T02:39:04.934Z,0.00
2019-03-27T02:40:06.581Z,0.00
2019-03-27T02:41:06.563Z,0.00
2019-03-27T02:42:06.577Z,0.00
2019-03-27T02:43:06.584Z,0.00
2019-03-27T02:44:06.571Z,0.00
2019-03-27T02:45:04.872Z,0.00
2019-03-27T02:46:23.240Z,0.00
2019-03-27T02:47:07.576Z,0.00
2019-03-27T02:48:06.598Z,0.00
2019-03-27T02:49:06.589Z,0.00
2019-03-27T02:50:06.562Z,0.00
2019-03-27T02:51:06.651Z,0.00
2019-03-27T02:52:06.570Z,0.00
2019-03-27T02:53:06.578Z,0.00
2019-03-27T02:54:06.572Z,0.00
2019-03-27T02:55:06.572Z,0.00
2019-03-27T02:56:06.576Z,0.00
2019-03-27T02:57:06.570Z,0.00
2019-03-27T02:58:06.579Z,0.00
2019-03-27T02:59:06.577Z,0.00
2019-03-27T03:00:06.572Z,0.00
2019-03-27T03:01:06.572Z,0.00
2019-03-27T03:02:06.566Z,0.00
2019-03-27T03:03:06.568Z,0.00
2019-03-27T03:04:06.569Z,0.00
2019-03-27T03:05:06.575Z,0.00
2019-03-27T03:06:06.576Z,0.00
2019-03-27T03:07:06.570Z,0.00
2019-03-27T03:08:06.577Z,0.00
2019-03-27T03:09:06.587Z,0.00
2019-03-27T03:10:06.575Z,0.00
2019-03-27T03:11:06.569Z,0.00
2019-03-27T03:12:06.568Z,0.00
2019-03-27T03:13:06.591Z,0.00
2019-03-27T03:14:06.073Z,0.00
2019-03-27T03:15:06.079Z,0.00
2019-03-27T03:16:06.073Z,0.00
2019-03-27T03:17:06.057Z,0.00
2019-03-27T03:18:06.068Z,0.00
2019-03-27T03:19:06.076Z,0.00
2019-03-27T03:20:06.069Z,0.00
2019-03-27T03:21:06.067Z,0.00
2019-03-27T03:22:06.056Z,0.00
2019-03-27T03:23:06.073Z,0.00
2019-03-27T03:24:06.075Z,0.00
2019-03-27T03:25:06.056Z,0.00
2019-03-27T03:26:06.068Z,0.00
2019-03-27T03:27:06.066Z,0.00
2019-03-27T03:28:06.072Z,0.00
2019-03-27T03:29:06.091Z,0.00
2019-03-27T03:30:06.080Z,0.00
2019-03-27T03:31:06.087Z,0.00
2019-03-27T03:32:06.077Z,0.00
2019-03-27T03:33:06.083Z,0.00
2019-03-27T03:34:06.080Z,0.00
2019-03-27T03:35:06.073Z,0.00
2019-03-27T03:36:06.064Z,0.00
2019-03-27T03:37:06.054Z,0.00
2019-03-27T03:38:06.065Z,0.00
2019-03-27T03:39:06.068Z,0.00
2019-03-27T03:40:06.078Z,0.00
2019-03-27T03:41:06.066Z,0.00
2019-03-27T03:42:06.053Z,0.00
2019-03-27T03:43:06.065Z,0.00
2019-03-27T03:44:06.064Z,0.00
2019-03-27T03:45:06.071Z,0.00
2019-03-27T03:46:06.068Z,0.00
2019-03-27T03:47:06.065Z,0.00
2019-03-27T03:48:06.063Z,0.00
2019-03-27T03:49:06.052Z,0.00
2019-03-27T03:50:06.075Z,0.00
2019-03-27T03:51:06.072Z,0.00
2019-03-27T03:52:06.077Z,0.00
2019-03-27T03:53:06.065Z,0.00
2019-03-27T03:54:06.062Z,0.00
2019-03-27T03:55:06.065Z,0.00
2019-03-27T03:56:06.065Z,0.00
2019-03-27T03:57:06.066Z,0.00
2019-03-27T03:58:06.063Z,0.00
2019-03-27T03:59:06.062Z,0.00
2019-03-27T04:00:06.084Z,0.00
2019-03-27T04:01:05.581Z,0.00
2019-03-27T04:02:04.074Z,0.00
2019-03-27T04:03:05.563Z,0.00
2019-03-27T04:04:05.567Z,0.00
2019-03-27T04:05:05.561Z,0.00
2019-03-27T04:06:05.550Z,0.00
2019-03-27T04:07:05.563Z,0.00
2019-03-27T04:08:05.568Z,0.00
2019-03-27T04:09:05.559Z,0.00
2019-03-27T04:10:05.578Z,0.00
2019-03-27T04:11:05.560Z,0.00
2019-03-27T04:12:05.572Z,0.00
2019-03-27T04:13:05.568Z,0.00
2019-03-27T04:14:05.562Z,0.00
2019-03-27T04:15:05.558Z,0.00
2019-03-27T04:16:05.566Z,0.00
2019-03-27T04:17:16.809Z,0.00
2019-03-27T04:18:06.570Z,0.00
2019-03-27T04:19:05.577Z,0.00
2019-03-27T04:20:05.569Z,0.00
2019-03-27T04:21:05.564Z,0.00
2019-03-27T04:22:05.576Z,0.00
2019-03-27T04:23:05.558Z,0.00
2019-03-27T04:24:05.566Z,0.00
2019-03-27T04:25:05.558Z,0.00
2019-03-27T04:26:10.417Z,0.00
2019-03-27T04:27:06.566Z,0.00
2019-03-27T04:28:05.555Z,0.00
2019-03-27T04:29:05.550Z,0.00
2019-03-27T04:30:05.560Z,0.00
2019-03-27T04:31:05.573Z,0.00
2019-03-27T04:32:05.559Z,0.00
2019-03-27T04:33:05.569Z,0.00
2019-03-27T04:34:05.558Z,0.00
2019-03-27T04:35:05.563Z,0.00
2019-03-27T04:36:05.559Z,0.00
2019-03-27T04:37:05.559Z,0.00
2019-03-27T04:38:05.568Z,0.00
2019-03-27T04:39:05.555Z,0.00
2019-03-27T04:40:05.554Z,0.00
2019-03-27T04:41:05.601Z,0.00
2019-03-27T04:42:05.623Z,0.00
2019-03-27T04:43:05.558Z,0.00
2019-03-27T04:44:05.557Z,0.00
2019-03-27T04:45:05.567Z,4.00
2019-03-27T04:46:05.554Z,4.00
2019-03-27T04:47:05.632Z,0.00
2019-03-27T04:48:04.555Z,4.00
2019-03-27T04:49:07.701Z,4.00
2019-03-27T04:50:05.059Z,0.00
2019-03-27T04:51:05.056Z,4.00
2019-03-27T04:52:05.062Z,4.00
2019-03-27T04:53:05.054Z,8.00
2019-03-27T04:54:05.054Z,8.00
2019-03-27T04:55:05.062Z,8.00
2019-03-27T04:56:05.055Z,12.00
2019-03-27T04:57:05.054Z,12.00
2019-03-27T04:58:05.064Z,16.00
2019-03-27T04:59:05.072Z,16.00
2019-03-27T05:00:05.115Z,20.00
2019-03-27T05:01:05.041Z,24.00
2019-03-27T05:02:06.640Z,28.00
2019-03-27T05:03:05.064Z,32.00
2019-03-27T05:04:05.054Z,36.00
2019-03-27T05:05:03.389Z,44.00
2019-03-27T05:06:05.046Z,52.00
2019-03-27T05:07:05.050Z,52.00
2019-03-27T05:08:05.062Z,60.00
2019-03-27T05:09:05.053Z,68.00
2019-03-27T05:10:05.041Z,76.00
2019-03-27T05:11:03.333Z,84.00
2019-03-27T05:12:05.050Z,96.00
2019-03-27T05:13:05.056Z,108.00
2019-03-27T05:14:05.057Z,120.00
2019-03-27T05:15:05.051Z,140.00
2019-03-27T05:16:05.052Z,152.00
2019-03-27T05:17:05.071Z,160.00
2019-03-27T05:18:05.042Z,168.00
2019-03-27T05:19:05.051Z,180.00
2019-03-27T05:20:05.049Z,188.00
2019-03-27T05:21:05.068Z,200.00
2019-03-27T05:22:05.120Z,224.00
2019-03-27T05:23:05.059Z,232.00
2019-03-27T05:24:05.048Z,228.00
2019-03-27T05:25:05.054Z,248.00
2019-03-27T05:26:05.053Z,272.00
2019-03-27T05:27:05.059Z,280.00
2019-03-27T05:28:05.051Z,280.00
2019-03-27T05:29:05.065Z,276.00
2019-03-27T05:30:05.037Z,284.00
2019-03-27T05:31:05.047Z,280.00
2019-03-27T05:32:05.090Z,268.00
2019-03-27T05:33:05.060Z,256.00
2019-03-27T05:34:05.068Z,248.00
2019-03-27T05:35:05.072Z,264.00
2019-03-27T05:36:04.621Z,296.00
2019-03-27T05:37:04.550Z,312.00
2019-03-27T05:38:04.566Z,332.00
2019-03-27T05:39:04.562Z,372.00
2019-03-27T05:40:03.010Z,392.00
2019-03-27T05:41:04.556Z,400.00
2019-03-27T05:42:04.547Z,448.00
2019-03-27T05:43:04.556Z,464.00
2019-03-27T05:44:04.550Z,552.00
2019-03-27T05:45:04.555Z,652.00
2019-03-27T05:46:04.548Z,704.00
2019-03-27T05:47:04.550Z,708.00
2019-03-27T05:48:04.559Z,708.00
2019-03-27T05:49:04.552Z,732.00
2019-03-27T05:50:04.553Z,756.00
2019-03-27T05:51:04.586Z,796.00
2019-03-27T05:52:04.534Z,876.00
2019-03-27T05:53:04.544Z,980.00
2019-03-27T05:54:04.549Z,1092.00
2019-03-27T05:55:04.561Z,1116.00
2019-03-27T05:56:04.533Z,1120.00
2019-03-27T05:57:04.548Z,1148.00
2019-03-27T05:58:04.553Z,1172.00
2019-03-27T05:59:04.546Z,1148.00
2019-03-27T06:00:04.548Z,1088.00
2019-03-27T06:01:04.061Z,1060.00
2019-03-27T06:02:04.583Z,1088.00
2019-03-27T06:03:03.698Z,1184.00
2019-03-27T06:04:04.543Z,1440.00
2019-03-27T06:05:04.544Z,1776.00
2019-03-27T06:06:04.555Z,2052.00
2019-03-27T06:07:04.556Z,2248.00
2019-03-27T06:08:04.544Z,2320.00
2019-03-27T06:09:02.698Z,2212.00
2019-03-27T06:10:04.545Z,2096.00
2019-03-27T06:11:04.531Z,2024.00
2019-03-27T06:12:04.559Z,2060.00
2019-03-27T06:13:04.554Z,2144.00
2019-03-27T06:14:04.550Z,2216.00
2019-03-27T06:15:04.531Z,2264.00
2019-03-27T06:16:04.535Z,2016.00
2019-03-27T06:17:04.541Z,1816.00
2019-03-27T06:18:13.068Z,1840.00
2019-03-27T06:19:05.553Z,2024.00
2019-03-27T06:20:04.542Z,2132.00
2019-03-27T06:21:04.596Z,2280.00
2019-03-27T06:22:04.540Z,2328.00
2019-03-27T06:23:04.048Z,2300.00
2019-03-27T06:24:04.050Z,2468.00
2019-03-27T06:25:04.047Z,2812.00
2019-03-27T06:26:04.050Z,3020.00
2019-03-27T06:27:04.052Z,2712.00
2019-03-27T06:28:04.032Z,2660.00
2019-03-27T06:29:04.039Z,2700.00
2019-03-27T06:30:04.051Z,2776.00
2019-03-27T06:31:04.043Z,2984.00
2019-03-27T06:32:04.042Z,3264.00
2019-03-27T06:33:04.043Z,3120.00
2019-03-27T06:34:04.051Z,3308.00
2019-03-27T06:35:04.040Z,3592.00
2019-03-27T06:36:04.037Z,3980.00
2019-03-27T06:37:04.042Z,3656.00
2019-03-27T06:38:04.042Z,3584.00
2019-03-27T06:39:04.040Z,3880.00
2019-03-27T06:40:04.054Z,4284.00
2019-03-27T06:41:04.040Z,4500.00
2019-03-27T06:42:04.050Z,4220.00
2019-03-27T06:43:04.086Z,4808.00
2019-03-27T06:44:04.051Z,5040.00
2019-03-27T06:45:04.043Z,5268.00
2019-03-27T06:46:04.048Z,5496.00
2019-03-27T06:47:04.028Z,5564.00
2019-03-27T06:48:04.037Z,5276.00
2019-03-27T06:49:04.039Z,4964.00
2019-03-27T06:50:04.050Z,4580.00
2019-03-27T06:51:04.047Z,4608.00
2019-03-27T06:52:04.050Z,4140.00
2019-03-27T06:53:04.054Z,4344.00
2019-03-27T06:54:04.039Z,4784.00
2019-03-27T06:55:04.046Z,4688.00
2019-03-27T06:56:04.038Z,4700.00
2019-03-27T06:57:04.044Z,4804.00
2019-03-27T06:58:04.039Z,4688.00
2019-03-27T06:59:02.162Z,4456.00
2019-03-27T07:00:04.026Z,4416.00
2019-03-27T07:01:04.036Z,4924.00
2019-03-27T07:02:04.046Z,5324.00
2019-03-27T07:03:04.039Z,4940.00
2019-03-27T07:04:10.544Z,4504.00
2019-03-27T07:05:32.983Z,4800.00
2019-03-27T07:06:34.713Z,4860.00
2019-03-27T07:07:34.707Z,4612.00
2019-03-27T07:08:34.696Z,4488.00
2019-03-27T07:09:34.723Z,4500.00
2019-03-27T07:10:34.707Z,4744.00
2019-03-27T07:11:34.704Z,4960.00
2019-03-27T07:12:34.708Z,4768.00
2019-03-27T07:13:34.695Z,4596.00
2019-03-27T07:14:32.903Z,4636.00
2019-03-27T07:15:35.836Z,4920.00
2019-03-27T07:16:34.704Z,5288.00
2019-03-27T07:17:34.714Z,5468.00
2019-03-27T07:18:40.359Z,5696.00
2019-03-27T07:19:34.712Z,6052.00
2019-03-27T07:20:34.712Z,6400.00
2019-03-27T07:21:34.711Z,6596.00
2019-03-27T07:22:34.701Z,6248.00
2019-03-27T07:23:34.705Z,5684.00
2019-03-27T07:24:34.704Z,5680.00
2019-03-27T07:25:34.709Z,5976.00
2019-03-27T07:26:34.701Z,6508.00
2019-03-27T07:27:34.728Z,6976.00
2019-03-27T07:28:34.764Z,7156.00
2019-03-27T07:29:34.703Z,7152.00
2019-03-27T07:30:34.212Z,7320.00
2019-03-27T07:31:34.204Z,7664.00
2019-03-27T07:32:34.201Z,7804.00
2019-03-27T07:33:34.193Z,7964.00
2019-03-27T07:34:34.202Z,8320.00
2019-03-27T07:35:34.214Z,8616.00
2019-03-27T07:36:34.202Z,8840.00
2019-03-27T07:37:34.204Z,8968.00
2019-03-27T07:38:34.204Z,9120.00
2019-03-27T07:39:34.200Z,9592.00
2019-03-27T07:40:34.211Z,10180.00
2019-03-27T07:41:34.247Z,10260.00
2019-03-27T07:42:34.218Z,10424.00
2019-03-27T07:43:34.200Z,10516.00
2019-03-27T07:44:34.191Z,9788.00
2019-03-27T07:45:32.542Z,9232.00
2019-03-27T07:46:34.199Z,9072.00
2019-03-27T07:47:34.212Z,9060.00
2019-03-27T07:48:34.201Z,9040.00
2019-03-27T07:49:34.202Z,9420.00
2019-03-27T07:50:34.201Z,9584.00
2019-03-27T07:51:34.198Z,9528.00
2019-03-27T07:52:34.206Z,9536.00
2019-03-27T07:53:34.188Z,9924.00
2019-03-27T07:54:34.199Z,9420.00
2019-03-27T07:55:34.205Z,8600.00
2019-03-27T07:56:34.211Z,7840.00
2019-03-27T07:57:34.236Z,7620.00
2019-03-27T07:58:34.203Z,7916.00
2019-03-27T07:59:34.200Z,8252.00
2019-03-27T08:00:34.200Z,8696.00
2019-03-27T08:01:34.200Z,9260.00
2019-03-27T08:02:34.200Z,10200.00
2019-03-27T08:03:34.206Z,10860.00
2019-03-27T08:04:34.198Z,10804.00
2019-03-27T08:05:34.197Z,10228.00
2019-03-27T08:06:34.210Z,9912.00
2019-03-27T08:07:34.200Z,10228.00
2019-03-27T08:08:35.323Z,10680.00
2019-03-27T08:09:34.270Z,11120.00
2019-03-27T08:10:34.199Z,11848.00
2019-03-27T08:11:32.360Z,11872.00
2019-03-27T08:12:34.197Z,11684.00
2019-03-27T08:13:34.212Z,12372.00
2019-03-27T08:14:34.199Z,13220.00
2019-03-27T08:15:34.198Z,13092.00
2019-03-27T08:16:34.197Z,12904.00
2019-03-27T08:17:33.702Z,13020.00
2019-03-27T08:18:33.697Z,13828.00
2019-03-27T08:19:33.710Z,15392.00
2019-03-27T08:20:33.702Z,16640.00
2019-03-27T08:21:33.717Z,16544.00
2019-03-27T08:22:33.742Z,15052.00
2019-03-27T08:23:33.686Z,13896.00
2019-03-27T08:24:33.708Z,12512.00
2019-03-27T08:25:33.698Z,11592.00
2019-03-27T08:26:33.697Z,10864.00
2019-03-27T08:27:33.700Z,9824.00
2019-03-27T08:28:33.700Z,8968.00
2019-03-27T08:29:33.697Z,8256.00
2019-03-27T08:30:33.703Z,7760.00
2019-03-27T08:31:33.699Z,7636.00
2019-03-27T08:32:33.699Z,7904.00
2019-03-27T08:33:33.698Z,8200.00
2019-03-27T08:34:33.700Z,9372.00
2019-03-27T08:35:33.702Z,8820.00
2019-03-27T08:36:33.713Z,8356.00
2019-03-27T08:37:32.002Z,8264.00
2019-03-27T08:38:33.686Z,8004.00
2019-03-27T08:39:33.699Z,7516.00
2019-03-27T08:40:33.701Z,8044.00
2019-03-27T08:41:33.699Z,10356.00
2019-03-27T08:42:32.702Z,11420.00
2019-03-27T08:43:33.703Z,11856.00
2019-03-27T08:44:33.698Z,12316.00
2019-03-27T08:45:33.701Z,12600.00
2019-03-27T08:46:33.708Z,12600.00
2019-03-27T08:47:33.723Z,11740.00
2019-03-27T08:48:33.736Z,11392.00
2019-03-27T08:49:33.706Z,11340.00
2019-03-27T08:50:33.685Z,11096.00
2019-03-27T08:51:33.730Z,10732.00
2019-03-27T08:52:33.707Z,11476.00
2019-03-27T08:53:33.698Z,11216.00
2019-03-27T08:54:33.703Z,9684.00
2019-03-27T08:55:33.687Z,7564.00
2019-03-27T08:56:33.695Z,7316.00
2019-03-27T08:57:33.698Z,7176.00
2019-03-27T08:58:33.723Z,7268.00
2019-03-27T08:59:32.790Z,7732.00
2019-03-27T09:00:33.764Z,7424.00
2019-03-27T09:01:33.697Z,8244.00
2019-03-27T09:02:33.703Z,8324.00
2019-03-27T09:03:33.203Z,8360.00
2019-03-27T09:04:33.214Z,8492.00
2019-03-27T09:05:33.198Z,8540.00
2019-03-27T09:06:34.302Z,8720.00
2019-03-27T09:07:33.187Z,9064.00
2019-03-27T09:08:31.655Z,9620.00
2019-03-27T09:09:33.222Z,10436.00
2019-03-27T09:10:33.203Z,11176.00
2019-03-27T09:11:33.200Z,11428.00
2019-03-27T09:12:33.229Z,11548.00
2019-03-27T09:13:33.243Z,12104.00
2019-03-27T09:14:33.195Z,13188.00
2019-03-27T09:15:33.185Z,13996.00
2019-03-27T09:16:33.202Z,14316.00
2019-03-27T09:17:33.205Z,14700.00
2019-03-27T09:18:33.195Z,14624.00
2019-03-27T09:19:35.893Z,14236.00
2019-03-27T09:20:33.193Z,12552.00
2019-03-27T09:21:33.203Z,12612.00
2019-03-27T09:22:33.184Z,14204.00
2019-03-27T09:23:33.196Z,13724.00
2019-03-27T09:24:33.198Z,12800.00
2019-03-27T09:25:33.198Z,11540.00
2019-03-27T09:26:33.205Z,10820.00
2019-03-27T09:27:33.185Z,10596.00
2019-03-27T09:28:33.193Z,11012.00
2019-03-27T09:29:33.194Z,11216.00
2019-03-27T09:30:33.185Z,11164.00
2019-03-27T09:31:44.103Z,9784.00
2019-03-27T09:32:34.205Z,8436.00
2019-03-27T09:33:33.204Z,7360.00
2019-03-27T09:34:31.351Z,6572.00
2019-03-27T09:35:33.199Z,6184.00
2019-03-27T09:36:33.204Z,5940.00
2019-03-27T09:37:33.204Z,6512.00
2019-03-27T09:38:33.195Z,8148.00
2019-03-27T09:39:31.717Z,8660.00
2019-03-27T09:40:33.225Z,8824.00
2019-03-27T09:41:33.284Z,9200.00
2019-03-27T09:42:33.183Z,9916.00
2019-03-27T09:43:33.195Z,10848.00
2019-03-27T09:44:33.203Z,12308.00
2019-03-27T09:45:33.202Z,14128.00
2019-03-27T09:46:33.215Z,16036.00
2019-03-27T09:47:34.776Z,17728.00
2019-03-27T09:48:32.702Z,18656.00
2019-03-27T09:49:32.712Z,18976.00
2019-03-27T09:50:32.696Z,18752.00
2019-03-27T09:51:32.695Z,18528.00
2019-03-27T09:52:32.705Z,18304.00
2019-03-27T09:53:32.747Z,18304.00
2019-03-27T09:54:32.742Z,16704.00
2019-03-27T09:55:32.694Z,15664.00
2019-03-27T09:56:32.695Z,14532.00
2019-03-27T09:57:32.707Z,14384.00
2019-03-27T09:58:32.705Z,13928.00
2019-03-27T09:59:32.699Z,13200.00
2019-03-27T10:00:32.702Z,12496.00
2019-03-27T10:01:32.693Z,11628.00
2019-03-27T10:02:32.684Z,11052.00
2019-03-27T10:03:32.694Z,11636.00
2019-03-27T10:04:32.702Z,11932.00
2019-03-27T10:05:31.017Z,12176.00
2019-03-27T10:06:32.684Z,12136.00
2019-03-27T10:07:32.701Z,11052.00
2019-03-27T10:08:32.703Z,9988.00
2019-03-27T10:09:32.703Z,8868.00
2019-03-27T10:10:32.694Z,8760.00
2019-03-27T10:11:32.682Z,6952.00
2019-03-27T10:12:32.692Z,6704.00
2019-03-27T10:13:32.696Z,6320.00
2019-03-27T10:14:32.681Z,5876.00
2019-03-27T10:15:32.705Z,5952.00
2019-03-27T10:16:32.698Z,6544.00
2019-03-27T10:17:32.694Z,8040.00
2019-03-27T10:18:32.695Z,7348.00
2019-03-27T10:19:32.705Z,8720.00
2019-03-27T10:20:32.739Z,9124.00
2019-03-27T10:21:32.756Z,9352.00
2019-03-27T10:22:32.693Z,9508.00
2019-03-27T10:23:32.682Z,9528.00
2019-03-27T10:24:32.693Z,7804.00
2019-03-27T10:25:32.702Z,7080.00
2019-03-27T10:26:32.684Z,7336.00
2019-03-27T10:27:32.694Z,8340.00
2019-03-27T10:28:32.695Z,9040.00
2019-03-27T10:29:32.703Z,9900.00
2019-03-27T10:30:32.699Z,10684.00
2019-03-27T10:31:30.749Z,11484.00
2019-03-27T10:32:32.692Z,12780.00
2019-03-27T10:33:31.702Z,15732.00
2019-03-27T10:34:31.691Z,15884.00
2019-03-27T10:35:32.195Z,15804.00
2019-03-27T10:36:32.202Z,15436.00
2019-03-27T10:37:32.193Z,14212.00
2019-03-27T10:38:32.181Z,14304.00
2019-03-27T10:39:32.200Z,15512.00
2019-03-27T10:40:32.198Z,16064.00
2019-03-27T10:41:32.200Z,16608.00
2019-03-27T10:42:32.207Z,18112.00
2019-03-27T10:43:32.180Z,20128.00
2019-03-27T10:44:32.191Z,21280.00
2019-03-27T10:45:32.191Z,21312.00
2019-03-27T10:46:32.184Z,20608.00
2019-03-27T10:47:32.207Z,20544.00
2019-03-27T10:48:32.199Z,19648.00
2019-03-27T10:49:34.399Z,16736.00
2019-03-27T10:50:32.192Z,14704.00
2019-03-27T10:51:32.197Z,13284.00
2019-03-27T10:52:32.201Z,12448.00
2019-03-27T10:53:32.193Z,12240.00
2019-03-27T10:54:32.192Z,12452.00
2019-03-27T10:55:34.529Z,12568.00
2019-03-27T10:56:32.191Z,12752.00
2019-03-27T10:57:32.201Z,12744.00
2019-03-27T10:58:32.191Z,13132.00
2019-03-27T10:59:32.206Z,13652.00
2019-03-27T11:00:32.203Z,13988.00
2019-03-27T11:01:32.256Z,14172.00
2019-03-27T11:02:30.403Z,14032.00
2019-03-27T11:03:32.181Z,14188.00
2019-03-27T11:04:32.199Z,15116.00
2019-03-27T11:05:32.191Z,16832.00
2019-03-27T11:06:32.181Z,18144.00
2019-03-27T11:07:32.194Z,19232.00
2019-03-27T11:08:32.195Z,19744.00
2019-03-27T11:09:32.199Z,20384.00
2019-03-27T11:10:32.194Z,21216.00
2019-03-27T11:11:32.194Z,20960.00
2019-03-27T11:12:32.193Z,20416.00
2019-03-27T11:13:34.399Z,19808.00
2019-03-27T11:14:38.250Z,19488.00
2019-03-27T11:15:33.191Z,24032.00
2019-03-27T11:16:32.194Z,22784.00
2019-03-27T11:17:32.191Z,24288.00
2019-03-27T11:18:32.195Z,26400.00
2019-03-27T11:19:33.684Z,28384.00
2019-03-27T11:20:31.837Z,35584.00
2019-03-27T11:21:31.704Z,34528.00
2019-03-27T11:22:31.693Z,35584.00
2019-03-27T11:23:31.685Z,37600.00
2019-03-27T11:24:31.691Z,41632.00
2019-03-27T11:25:33.359Z,41152.00
2019-03-27T11:26:31.709Z,37376.00
2019-03-27T11:27:31.703Z,34496.00
2019-03-27T11:28:30.105Z,18304.00
2019-03-27T11:29:31.692Z,18016.00
2019-03-27T11:30:31.694Z,21920.00
2019-03-27T11:31:31.706Z,20576.00
2019-03-27T11:32:31.696Z,17952.00
2019-03-27T11:33:31.703Z,16416.00
2019-03-27T11:34:31.696Z,16084.00
2019-03-27T11:35:31.693Z,15260.00
2019-03-27T11:36:32.018Z,14488.00
2019-03-27T11:37:31.703Z,14092.00
2019-03-27T11:38:31.682Z,14672.00
2019-03-27T11:39:31.695Z,14988.00
2019-03-27T11:40:31.694Z,15360.00
2019-03-27T11:41:31.707Z,16736.00
2019-03-27T11:42:31.740Z,18144.00
2019-03-27T11:43:31.763Z,19712.00
2019-03-27T11:44:31.694Z,20896.00
2019-03-27T11:45:31.699Z,20768.00
2019-03-27T11:46:32.383Z,19712.00
2019-03-27T11:47:31.692Z,18368.00
2019-03-27T11:48:31.703Z,17080.00
2019-03-27T11:49:31.692Z,16556.00
2019-03-27T11:50:44.179Z,16624.00
2019-03-27T11:51:32.695Z,16640.00
2019-03-27T11:52:31.704Z,17088.00
2019-03-27T11:53:31.706Z,16292.00
2019-03-27T11:54:29.825Z,16896.00
2019-03-27T11:55:31.691Z,15952.00
2019-03-27T11:56:31.694Z,15460.00
2019-03-27T11:57:31.695Z,15296.00
2019-03-27T11:58:31.705Z,15372.00
2019-03-27T11:59:29.764Z,16172.00
2019-03-27T12:00:31.709Z,15720.00
2019-03-27T12:01:40.510Z,16064.00
2019-03-27T12:02:32.685Z,17472.00
2019-03-27T12:03:31.705Z,19104.00
2019-03-27T12:04:31.695Z,20544.00
2019-03-27T12:05:31.694Z,21408.00
2019-03-27T12:06:31.195Z,23008.00
2019-03-27T12:07:31.184Z,24576.00
2019-03-27T12:08:31.204Z,26016.00
2019-03-27T12:09:31.206Z,26880.00
2019-03-27T12:10:31.183Z,26592.00
2019-03-27T12:11:31.195Z,26336.00
2019-03-27T12:12:31.197Z,25664.00
2019-03-27T12:13:31.193Z,25312.00
2019-03-27T12:14:31.199Z,22784.00
2019-03-27T12:15:31.196Z,20800.00
2019-03-27T12:16:31.198Z,19424.00
2019-03-27T12:17:31.195Z,19040.00
2019-03-27T12:18:32.239Z,19296.00
2019-03-27T12:19:31.206Z,20352.00
2019-03-27T12:20:31.204Z,21600.00
2019-03-27T12:21:31.193Z,22688.00
2019-03-27T12:22:31.243Z,23584.00
2019-03-27T12:23:31.254Z,23616.00
2019-03-27T12:24:31.197Z,24352.00
2019-03-27T12:25:29.509Z,24256.00
2019-03-27T12:26:31.195Z,23552.00
2019-03-27T12:27:31.193Z,23456.00
2019-03-27T12:28:31.194Z,25728.00